UAE6AU YPPH-OMDB
Flight info
| Callsign | UAE6AU |
|---|---|
| Flight time | N/A |
| Altitude | 34000 |
| Route | OPEGA1 OPEGA DCT UNDER DCT 27S107E 25S104E DCT POLUM/N0497F360 DCT 16S095E 10S090E 07S087E 05S085E DCT APOVU DCT AKDOB/N0484F380 DCT BIBGO L894 KITAL P570 ITURA M762 VAXAS/N0395F240 M762 MIVEK P574 IMPED IMPED3C |
| Aircraft | A388/J-SADE2E3FGHIJ3J4J5M1RWXY/LB1D1 |
Departure
| Time | N/A |
|---|---|
| Airport | Perth International Airport (YPPH) |
Arrival
| Time | 2026-05-05 06:58 |
|---|---|
| Airport | Dubai International Airport (OMDB) |
| Time | Latitude | Longitude | Altitude | Speed | Heading |
|---|---|---|---|---|---|
| 2026-05-05 05:53 | 19.69130 | 60.64076 | 36864 ft | 488 kts | 316° |
| 2026-05-05 05:53 | 19.74200 | 60.59274 | 36872 ft | 487 kts | 316° |
| 2026-05-05 05:54 | 19.79254 | 60.54483 | 36873 ft | 487 kts | 316° |
| 2026-05-05 05:54 | 19.84311 | 60.49683 | 36853 ft | 487 kts | 317° |
| 2026-05-05 05:55 | 19.89360 | 60.44888 | 36847 ft | 487 kts | 317° |
| 2026-05-05 05:55 | 19.94410 | 60.40090 | 36850 ft | 487 kts | 316° |
| 2026-05-05 05:56 | 19.99414 | 60.35332 | 36863 ft | 486 kts | 316° |
| 2026-05-05 05:56 | 20.04525 | 60.30606 | 36856 ft | 487 kts | 321° |
| 2026-05-05 05:57 | 20.10225 | 60.26704 | 36862 ft | 488 kts | 327° |
| 2026-05-05 05:57 | 20.16048 | 60.23016 | 36853 ft | 487 kts | 327° |
| 2026-05-05 05:58 | 20.21877 | 60.19310 | 36840 ft | 487 kts | 328° |
| 2026-05-05 05:58 | 20.27693 | 60.15615 | 36846 ft | 487 kts | 328° |
| 2026-05-05 05:59 | 20.33529 | 60.11906 | 36851 ft | 487 kts | 328° |
| 2026-05-05 05:59 | 20.39307 | 60.08231 | 36857 ft | 487 kts | 327° |
| 2026-05-05 06:00 | 20.45121 | 60.04528 | 36843 ft | 486 kts | 327° |
| 2026-05-05 06:00 | 20.50929 | 60.00827 | 36843 ft | 486 kts | 327° |
| 2026-05-05 06:01 | 20.56744 | 59.97118 | 36840 ft | 486 kts | 327° |
| 2026-05-05 06:01 | 20.62549 | 59.93413 | 36842 ft | 486 kts | 327° |
| 2026-05-05 06:02 | 20.68358 | 59.89701 | 36847 ft | 486 kts | 327° |
| 2026-05-05 06:02 | 20.74170 | 59.85984 | 36842 ft | 486 kts | 327° |
| 2026-05-05 06:03 | 20.79926 | 59.82300 | 36841 ft | 486 kts | 327° |
| 2026-05-05 06:03 | 20.85734 | 59.78578 | 36848 ft | 486 kts | 327° |
| 2026-05-05 06:04 | 20.91535 | 59.74858 | 36847 ft | 485 kts | 327° |
| 2026-05-05 06:04 | 20.97319 | 59.71145 | 36841 ft | 485 kts | 327° |
| 2026-05-05 06:05 | 21.03117 | 59.67421 | 36842 ft | 485 kts | 327° |
| 2026-05-05 06:05 | 21.08897 | 59.63700 | 36836 ft | 484 kts | 327° |
| 2026-05-05 06:06 | 21.14637 | 59.60003 | 36833 ft | 484 kts | 327° |
| 2026-05-05 06:06 | 21.20410 | 59.56281 | 36832 ft | 484 kts | 327° |
| 2026-05-05 06:07 | 21.26175 | 59.52561 | 36837 ft | 484 kts | 327° |
| 2026-05-05 06:07 | 21.31001 | 59.49443 | 36835 ft | 483 kts | 327° |
| 2026-05-05 06:08 | 21.36729 | 59.45739 | 36835 ft | 483 kts | 327° |
| 2026-05-05 06:08 | 21.42488 | 59.42012 | 36833 ft | 483 kts | 327° |
| 2026-05-05 06:09 | 21.48243 | 59.38283 | 36836 ft | 483 kts | 327° |
| 2026-05-05 06:09 | 21.54007 | 59.34546 | 36838 ft | 483 kts | 327° |
| 2026-05-05 06:10 | 21.59757 | 59.30814 | 36848 ft | 483 kts | 327° |
| 2026-05-05 06:10 | 21.65511 | 59.27077 | 36849 ft | 482 kts | 327° |
| 2026-05-05 06:11 | 21.71219 | 59.23368 | 36839 ft | 482 kts | 327° |
| 2026-05-05 06:11 | 21.76956 | 59.19637 | 36841 ft | 482 kts | 327° |
| 2026-05-05 06:12 | 21.82685 | 59.15907 | 36837 ft | 481 kts | 327° |
| 2026-05-05 06:12 | 21.88417 | 59.12173 | 36851 ft | 481 kts | 326° |
| 2026-05-05 06:13 | 21.94137 | 59.08442 | 36846 ft | 480 kts | 326° |
| 2026-05-05 06:13 | 21.99864 | 59.04702 | 36842 ft | 480 kts | 326° |
| 2026-05-05 06:14 | 22.05525 | 59.01002 | 36838 ft | 480 kts | 326° |
| 2026-05-05 06:14 | 22.11236 | 58.97266 | 36837 ft | 479 kts | 326° |
| 2026-05-05 06:15 | 22.16935 | 58.93535 | 36839 ft | 479 kts | 326° |
| 2026-05-05 06:15 | 22.22640 | 58.89796 | 36840 ft | 479 kts | 326° |
| 2026-05-05 06:16 | 22.28344 | 58.86054 | 36838 ft | 480 kts | 326° |
| 2026-05-05 06:16 | 22.34050 | 58.82307 | 36850 ft | 480 kts | 326° |
| 2026-05-05 06:17 | 22.39727 | 58.78576 | 36847 ft | 480 kts | 326° |
| 2026-05-05 06:17 | 22.45432 | 58.74822 | 36847 ft | 480 kts | 326° |
| 2026-05-05 06:18 | 22.51142 | 58.71062 | 36848 ft | 480 kts | 326° |
| 2026-05-05 06:18 | 22.56842 | 58.67305 | 36843 ft | 480 kts | 326° |
| 2026-05-05 06:19 | 22.62538 | 58.63547 | 36856 ft | 479 kts | 326° |
| 2026-05-05 06:19 | 22.68237 | 58.59783 | 36852 ft | 478 kts | 326° |
| 2026-05-05 06:20 | 22.73916 | 58.56030 | 36845 ft | 478 kts | 326° |
| 2026-05-05 06:20 | 22.79550 | 58.52303 | 36841 ft | 478 kts | 326° |
| 2026-05-05 06:21 | 22.85230 | 58.48542 | 36850 ft | 477 kts | 325° |
| 2026-05-05 06:21 | 22.90894 | 58.44787 | 36850 ft | 477 kts | 325° |
| 2026-05-05 06:22 | 22.96551 | 58.41033 | 36844 ft | 476 kts | 325° |
| 2026-05-05 06:22 | 23.02171 | 58.37301 | 36833 ft | 476 kts | 325° |
| 2026-05-05 06:23 | 23.07816 | 58.33548 | 36849 ft | 475 kts | 324° |
| 2026-05-05 06:23 | 23.13457 | 58.29790 | 36829 ft | 474 kts | 324° |
| 2026-05-05 06:24 | 23.19081 | 58.26039 | 36825 ft | 474 kts | 324° |
| 2026-05-05 06:24 | 23.24670 | 58.22311 | 36817 ft | 473 kts | 324° |
| 2026-05-05 06:25 | 23.30279 | 58.18563 | 36804 ft | 473 kts | 324° |
| 2026-05-05 06:25 | 23.35841 | 58.14728 | 36799 ft | 470 kts | 320° |
| 2026-05-05 06:26 | 23.40723 | 58.10067 | 36807 ft | 465 kts | 310° |
| 2026-05-05 06:26 | 23.44733 | 58.04596 | 36786 ft | 460 kts | 302° |
| 2026-05-05 06:27 | 23.50315 | 57.96080 | 36810 ft | 461 kts | 303° |
| 2026-05-05 06:28 | 23.54012 | 57.90433 | 36836 ft | 461 kts | 303° |
| 2026-05-05 06:28 | 23.57729 | 57.84739 | 36808 ft | 461 kts | 303° |
| 2026-05-05 06:29 | 23.61519 | 57.79109 | 36814 ft | 462 kts | 305° |
| 2026-05-05 06:29 | 23.65524 | 57.73615 | 36806 ft | 462 kts | 306° |
| 2026-05-05 06:30 | 23.69506 | 57.68102 | 36827 ft | 462 kts | 305° |
| 2026-05-05 06:30 | 23.73461 | 57.62573 | 36818 ft | 462 kts | 305° |
| 2026-05-05 06:31 | 23.77410 | 57.57035 | 36823 ft | 462 kts | 305° |
| 2026-05-05 06:31 | 23.81333 | 57.51531 | 36816 ft | 462 kts | 305° |
| 2026-05-05 06:32 | 23.85275 | 57.45994 | 36839 ft | 461 kts | 305° |
| 2026-05-05 06:32 | 23.89212 | 57.40458 | 36834 ft | 461 kts | 304° |
| 2026-05-05 06:33 | 23.93152 | 57.34912 | 36847 ft | 461 kts | 304° |
| 2026-05-05 06:33 | 23.97080 | 57.29376 | 36828 ft | 460 kts | 304° |
| 2026-05-05 06:34 | 24.01004 | 57.23840 | 36825 ft | 460 kts | 304° |
| 2026-05-05 06:34 | 24.04912 | 57.18322 | 36546 ft | 454 kts | 304° |
| 2026-05-05 06:34 | 24.06812 | 57.15637 | 35841 ft | 452 kts | 304° |
| 2026-05-05 06:35 | 24.08737 | 57.12913 | 34797 ft | 452 kts | 305° |
| 2026-05-05 06:35 | 24.10668 | 57.10178 | 33581 ft | 454 kts | 305° |
| 2026-05-05 06:35 | 24.12597 | 57.07447 | 32515 ft | 451 kts | 305° |
| 2026-05-05 06:35 | 24.14499 | 57.04754 | 31751 ft | 444 kts | 305° |
| 2026-05-05 06:36 | 24.16380 | 57.02090 | 31266 ft | 441 kts | 305° |
| 2026-05-05 06:36 | 24.18256 | 56.99428 | 31024 ft | 442 kts | 305° |
| 2026-05-05 06:36 | 24.20133 | 56.96764 | 30786 ft | 442 kts | 305° |
| 2026-05-05 06:36 | 24.22010 | 56.94099 | 30541 ft | 441 kts | 305° |
| 2026-05-05 06:37 | 24.23854 | 56.91478 | 30148 ft | 439 kts | 305° |
| 2026-05-05 06:37 | 24.25736 | 56.88802 | 29704 ft | 436 kts | 305° |
| 2026-05-05 06:37 | 24.27552 | 56.86218 | 29214 ft | 433 kts | 305° |
| 2026-05-05 06:37 | 24.29385 | 56.83609 | 28745 ft | 431 kts | 305° |
| 2026-05-05 06:38 | 24.31214 | 56.81003 | 28231 ft | 429 kts | 305° |
| 2026-05-05 06:38 | 24.33020 | 56.78428 | 27724 ft | 426 kts | 306° |
| 2026-05-05 06:38 | 24.34824 | 56.75857 | 27223 ft | 424 kts | 306° |
| 2026-05-05 06:38 | 24.36624 | 56.73288 | 26719 ft | 422 kts | 306° |
| 2026-05-05 06:39 | 24.38414 | 56.70733 | 26251 ft | 420 kts | 306° |
| 2026-05-05 06:39 | 24.40183 | 56.68206 | 25771 ft | 417 kts | 306° |
| 2026-05-05 06:39 | 24.41947 | 56.65686 | 25303 ft | 415 kts | 306° |
| 2026-05-05 06:39 | 24.43731 | 56.63194 | 24817 ft | 413 kts | 309° |
| 2026-05-05 06:40 | 24.45685 | 56.60866 | 23906 ft | 418 kts | 312° |
| 2026-05-05 06:40 | 24.47683 | 56.58549 | 23183 ft | 413 kts | 312° |
| 2026-05-05 06:40 | 24.49643 | 56.56272 | 22443 ft | 408 kts | 312° |
| 2026-05-05 06:40 | 24.51573 | 56.54023 | 21760 ft | 401 kts | 312° |
| 2026-05-05 06:41 | 24.53449 | 56.51832 | 21089 ft | 395 kts | 311° |
| 2026-05-05 06:41 | 24.55320 | 56.49644 | 20453 ft | 390 kts | 311° |
| 2026-05-05 06:41 | 24.57166 | 56.47482 | 19818 ft | 386 kts | 311° |
| 2026-05-05 06:41 | 24.58996 | 56.45336 | 19192 ft | 382 kts | 311° |
| 2026-05-05 06:42 | 24.60805 | 56.43216 | 18590 ft | 379 kts | 311° |
| 2026-05-05 06:42 | 24.62598 | 56.41113 | 17989 ft | 375 kts | 311° |
| 2026-05-05 06:42 | 24.64372 | 56.39032 | 17359 ft | 371 kts | 312° |
| 2026-05-05 06:42 | 24.66127 | 56.36971 | 16767 ft | 366 kts | 312° |
| 2026-05-05 06:43 | 24.67858 | 56.34938 | 16198 ft | 362 kts | 312° |
| 2026-05-05 06:43 | 24.69570 | 56.32928 | 15610 ft | 358 kts | 312° |
| 2026-05-05 06:43 | 24.71418 | 56.31107 | 15052 ft | 356 kts | 323° |
| 2026-05-05 06:43 | 24.73577 | 56.29784 | 14486 ft | 355 kts | 336° |
| 2026-05-05 06:44 | 24.75942 | 56.28983 | 14095 ft | 358 kts | 344° |
| 2026-05-05 06:44 | 24.78366 | 56.28284 | 13503 ft | 362 kts | 343° |
| 2026-05-05 06:44 | 24.80789 | 56.27555 | 12888 ft | 359 kts | 343° |
| 2026-05-05 06:44 | 24.83181 | 56.26832 | 12311 ft | 354 kts | 343° |
| 2026-05-05 06:45 | 24.85495 | 56.26106 | 11740 ft | 348 kts | 340° |
| 2026-05-05 06:45 | 24.87589 | 56.24811 | 11167 ft | 345 kts | 321° |
| 2026-05-05 06:45 | 24.89154 | 56.22832 | 10595 ft | 343 kts | 302° |
| 2026-05-05 06:45 | 24.90305 | 56.20558 | 10197 ft | 335 kts | 300° |
| 2026-05-05 06:46 | 24.91423 | 56.18365 | 10060 ft | 320 kts | 300° |
| 2026-05-05 06:46 | 24.92492 | 56.16283 | 9928 ft | 306 kts | 300° |
| 2026-05-05 06:46 | 24.93530 | 56.14266 | 9734 ft | 301 kts | 301° |
| 2026-05-05 06:46 | 24.94566 | 56.12253 | 9342 ft | 302 kts | 301° |
| 2026-05-05 06:47 | 24.95597 | 56.10250 | 8959 ft | 299 kts | 301° |
| 2026-05-05 06:47 | 24.96614 | 56.08259 | 8574 ft | 297 kts | 298° |
| 2026-05-05 06:47 | 24.97350 | 56.06149 | 8200 ft | 295 kts | 284° |
| 2026-05-05 06:47 | 24.97659 | 56.03916 | 7824 ft | 293 kts | 275° |
| 2026-05-05 06:48 | 24.97842 | 56.01712 | 7440 ft | 292 kts | 275° |
| 2026-05-05 06:48 | 24.98054 | 55.99492 | 7058 ft | 291 kts | 276° |
| 2026-05-05 06:48 | 24.98274 | 55.97277 | 6681 ft | 290 kts | 276° |
| 2026-05-05 06:48 | 24.98493 | 55.95061 | 6301 ft | 290 kts | 275° |
| 2026-05-05 06:49 | 24.98708 | 55.92858 | 5921 ft | 289 kts | 275° |
| 2026-05-05 06:49 | 24.98920 | 55.90665 | 5531 ft | 287 kts | 275° |
| 2026-05-05 06:49 | 24.99130 | 55.88483 | 5186 ft | 286 kts | 276° |
| 2026-05-05 06:49 | 24.99341 | 55.86285 | 5002 ft | 288 kts | 276° |
| 2026-05-05 06:50 | 24.99554 | 55.84094 | 4811 ft | 288 kts | 277° |
| 2026-05-05 06:50 | 25.00032 | 55.81953 | 4618 ft | 285 kts | 292° |
| 2026-05-05 06:50 | 25.00971 | 55.80046 | 4422 ft | 283 kts | 304° |
| 2026-05-05 06:50 | 25.02032 | 55.78210 | 4245 ft | 286 kts | 303° |
| 2026-05-05 06:51 | 25.03098 | 55.76370 | 4044 ft | 281 kts | 306° |
| 2026-05-05 06:51 | 25.04200 | 55.74621 | 3869 ft | 281 kts | 305° |
| 2026-05-05 06:51 | 25.05272 | 55.72777 | 3669 ft | 282 kts | 302° |
| 2026-05-05 06:51 | 25.06284 | 55.70937 | 3477 ft | 278 kts | 302° |
| 2026-05-05 06:52 | 25.07275 | 55.69136 | 3282 ft | 270 kts | 302° |
| 2026-05-05 06:52 | 25.08224 | 55.67410 | 3092 ft | 264 kts | 302° |
| 2026-05-05 06:52 | 25.09197 | 55.65641 | 2913 ft | 268 kts | 302° |
| 2026-05-05 06:52 | 25.10154 | 55.63902 | 2718 ft | 268 kts | 302° |
| 2026-05-05 06:53 | 25.11119 | 55.62148 | 2534 ft | 267 kts | 302° |
| 2026-05-05 06:53 | 25.12082 | 55.60397 | 2339 ft | 266 kts | 302° |
| 2026-05-05 06:53 | 25.13040 | 55.58656 | 2145 ft | 264 kts | 302° |
| 2026-05-05 06:53 | 25.13989 | 55.56934 | 2015 ft | 261 kts | 302° |
| 2026-05-05 06:54 | 25.14924 | 55.55234 | 2006 ft | 256 kts | 302° |
| 2026-05-05 06:54 | 25.15822 | 55.53604 | 2013 ft | 239 kts | 302° |
| 2026-05-05 06:54 | 25.16658 | 55.52086 | 1997 ft | 225 kts | 302° |
| 2026-05-05 06:54 | 25.17440 | 55.50665 | 2012 ft | 202 kts | 302° |
| 2026-05-05 06:55 | 25.18117 | 55.49435 | 1989 ft | 177 kts | 303° |
| 2026-05-05 06:55 | 25.18725 | 55.48329 | 1757 ft | 161 kts | 302° |
| 2026-05-05 06:55 | 25.19301 | 55.47288 | 1579 ft | 158 kts | 302° |
| 2026-05-05 06:55 | 25.19868 | 55.46262 | 1362 ft | 155 kts | 302° |
| 2026-05-05 06:56 | 25.20427 | 55.45234 | 1238 ft | 155 kts | 301° |
| 2026-05-05 06:56 | 25.20969 | 55.44217 | 1043 ft | 153 kts | 301° |
| 2026-05-05 06:56 | 25.21503 | 55.43231 | 862 ft | 151 kts | 301° |
| 2026-05-05 06:56 | 25.21865 | 55.42563 | 719 ft | 148 kts | 301° |
| 2026-05-05 06:57 | 25.22578 | 55.41311 | 424 ft | 143 kts | 301° |
| 2026-05-05 06:57 | 25.23093 | 55.40380 | 256 ft | 144 kts | 300° |
| 2026-05-05 06:57 | 25.23607 | 55.39438 | 61 ft | 143 kts | 300° |
| 2026-05-05 06:57 | 25.23937 | 55.38834 | 30 ft | 128 kts | 301° |
| 2026-05-05 06:58 | 25.24328 | 55.38140 | 31 ft | 87 kts | 301° |
| 2026-05-05 06:58 | 25.24596 | 55.37662 | 27 ft | 53 kts | 302° |
| 2026-05-05 06:58 | 25.24694 | 55.37485 | 27 ft | 20 kts | 301° |
| 2026-05-05 06:58 | 25.24758 | 55.37348 | 28 ft | 19 kts | 284° |
| 2026-05-05 06:59 | 25.24782 | 55.37205 | 29 ft | 19 kts | 276° |
| 2026-05-05 06:59 | 25.24785 | 55.37055 | 27 ft | 20 kts | 270° |
| 2026-05-05 06:59 | 25.24772 | 55.36898 | 27 ft | 21 kts | 255° |
| 2026-05-05 06:59 | 25.24680 | 55.36791 | 26 ft | 20 kts | 212° |
| 2026-05-05 07:00 | 25.24557 | 55.36709 | 32 ft | 21 kts | 211° |
| 2026-05-05 07:00 | 25.24464 | 55.36630 | 30 ft | 17 kts | 234° |
| 2026-05-05 07:00 | 25.24451 | 55.36512 | 28 ft | 17 kts | 287° |
| 2026-05-05 07:00 | 25.24501 | 55.36408 | 30 ft | 12 kts | 302° |
| 2026-05-05 07:01 | 25.24544 | 55.36332 | 30 ft | 11 kts | 292° |
| 2026-05-05 07:01 | 25.24557 | 55.36234 | 29 ft | 13 kts | 275° |
| 2026-05-05 07:01 | 25.24572 | 55.36139 | 28 ft | 13 kts | 289° |
| 2026-05-05 07:01 | 25.24622 | 55.36045 | 29 ft | 16 kts | 301° |
| 2026-05-05 07:02 | 25.24671 | 55.35973 | 32 ft | 11 kts | 339° |
| 2026-05-05 07:02 | 25.24746 | 55.35988 | 30 ft | 11 kts | 21° |
| 2026-05-05 07:02 | 25.24797 | 55.36011 | 30 ft | 7 kts | 24° |
| 2026-05-05 07:02 | 25.24819 | 55.36022 | 30 ft | 1 kts | 21° |